sensor_id;sensor_type;location;lat;lon;timestamp;P1;durP1;ratioP1;P2;durP2;ratioP2
76552;SDS011;65395;53.168;18.156;2023-09-19T00:00:41;20.20;;;13.90;;
76552;SDS011;65395;53.168;18.156;2023-09-19T00:03:28;17.70;;;14.30;;
76552;SDS011;65395;53.168;18.156;2023-09-19T00:05:57;20.30;;;13.80;;
76552;SDS011;65395;53.168;18.156;2023-09-19T00:08:26;19.60;;;16.00;;
76552;SDS011;65395;53.168;18.156;2023-09-19T00:10:54;20.10;;;16.30;;
76552;SDS011;65395;53.168;18.156;2023-09-19T00:13:21;23.50;;;16.40;;
76552;SDS011;65395;53.168;18.156;2023-09-19T00:15:48;24.40;;;16.80;;
76552;SDS011;65395;53.168;18.156;2023-09-19T00:18:15;24.30;;;17.90;;
76552;SDS011;65395;53.168;18.156;2023-09-19T00:20:42;23.40;;;16.60;;
76552;SDS011;65395;53.168;18.156;2023-09-19T00:23:09;24.90;;;16.10;;
76552;SDS011;65395;53.168;18.156;2023-09-19T00:25:36;21.10;;;15.50;;
76552;SDS011;65395;53.168;18.156;2023-09-19T00:28:04;24.20;;;16.10;;
76552;SDS011;65395;53.168;18.156;2023-09-19T00:30:33;21.20;;;15.70;;
76552;SDS011;65395;53.168;18.156;2023-09-19T00:33:00;19.00;;;14.00;;
76552;SDS011;65395;53.168;18.156;2023-09-19T00:35:32;22.00;;;15.20;;
76552;SDS011;65395;53.168;18.156;2023-09-19T00:37:59;21.70;;;15.80;;
76552;SDS011;65395;53.168;18.156;2023-09-19T00:40:26;22.10;;;16.90;;
76552;SDS011;65395;53.168;18.156;2023-09-19T00:42:53;23.90;;;17.00;;
76552;SDS011;65395;53.168;18.156;2023-09-19T00:45:26;21.80;;;17.90;;
76552;SDS011;65395;53.168;18.156;2023-09-19T00:47:54;20.70;;;17.60;;
76552;SDS011;65395;53.168;18.156;2023-09-19T00:50:23;19.10;;;15.70;;
76552;SDS011;65395;53.168;18.156;2023-09-19T00:52:53;19.90;;;14.60;;
76552;SDS011;65395;53.168;18.156;2023-09-19T00:55:22;22.70;;;14.00;;
76552;SDS011;65395;53.168;18.156;2023-09-19T00:57:50;21.10;;;13.90;;
76552;SDS011;65395;53.168;18.156;2023-09-19T01:00:19;23.10;;;16.20;;
76552;SDS011;65395;53.168;18.156;2023-09-19T01:02:46;20.10;;;15.90;;
76552;SDS011;65395;53.168;18.156;2023-09-19T01:05:14;21.60;;;15.70;;
76552;SDS011;65395;53.168;18.156;2023-09-19T01:07:41;19.60;;;15.90;;
76552;SDS011;65395;53.168;18.156;2023-09-19T01:10:12;20.60;;;14.70;;
76552;SDS011;65395;53.168;18.156;2023-09-19T01:12:45;18.30;;;13.10;;
76552;SDS011;65395;53.168;18.156;2023-09-19T01:18:21;13.20;;;11.00;;
76552;SDS011;65395;53.168;18.156;2023-09-19T01:32:35;7.90;;;5.90;;
76552;SDS011;65395;53.168;18.156;2023-09-19T01:35:04;9.20;;;5.80;;
76552;SDS011;65395;53.168;18.156;2023-09-19T01:37:31;7.40;;;5.30;;
76552;SDS011;65395;53.168;18.156;2023-09-19T01:39:59;9.30;;;4.90;;
76552;SDS011;65395;53.168;18.156;2023-09-19T01:42:35;9.30;;;3.80;;
76552;SDS011;65395;53.168;18.156;2023-09-19T01:45:12;5.50;;;4.10;;
76552;SDS011;65395;53.168;18.156;2023-09-19T01:47:48;6.40;;;4.00;;
76552;SDS011;65395;53.168;18.156;2023-09-19T01:53:10;8.30;;;4.10;;
76552;SDS011;65395;53.168;18.156;2023-09-19T01:55:46;9.60;;;3.80;;
76552;SDS011;65395;53.168;18.156;2023-09-19T01:58:17;4.00;;;3.00;;
76552;SDS011;65395;53.168;18.156;2023-09-19T02:00:52;4.90;;;3.30;;
76552;SDS011;65395;53.168;18.156;2023-09-19T02:03:22;4.40;;;3.00;;
76552;SDS011;65395;53.168;18.156;2023-09-19T02:05:50;5.60;;;3.40;;
76552;SDS011;65395;53.168;18.156;2023-09-19T02:08:21;5.20;;;3.10;;
76552;SDS011;65395;53.168;18.156;2023-09-19T02:10:50;5.70;;;3.30;;
76552;SDS011;65395;53.168;18.156;2023-09-19T02:13:17;5.40;;;3.00;;
76552;SDS011;65395;53.168;18.156;2023-09-19T02:15:45;8.20;;;3.10;;
76552;SDS011;65395;53.168;18.156;2023-09-19T02:18:13;5.00;;;2.70;;
76552;SDS011;65395;53.168;18.156;2023-09-19T02:20:42;6.00;;;3.00;;
76552;SDS011;65395;53.168;18.156;2023-09-19T02:23:10;5.20;;;3.00;;
76552;SDS011;65395;53.168;18.156;2023-09-19T02:25:37;5.10;;;2.50;;
76552;SDS011;65395;53.168;18.156;2023-09-19T02:28:07;5.20;;;2.70;;
76552;SDS011;65395;53.168;18.156;2023-09-19T02:30:35;6.10;;;3.30;;
76552;SDS011;65395;53.168;18.156;2023-09-19T02:33:02;5.50;;;3.50;;
76552;SDS011;65395;53.168;18.156;2023-09-19T02:35:30;4.50;;;2.90;;
76552;SDS011;65395;53.168;18.156;2023-09-19T02:38:01;5.80;;;2.80;;
76552;SDS011;65395;53.168;18.156;2023-09-19T02:40:32;7.50;;;2.80;;
76552;SDS011;65395;53.168;18.156;2023-09-19T02:43:02;5.10;;;3.10;;
76552;SDS011;65395;53.168;18.156;2023-09-19T02:45:29;7.00;;;3.20;;
76552;SDS011;65395;53.168;18.156;2023-09-19T02:47:56;6.50;;;3.00;;
76552;SDS011;65395;53.168;18.156;2023-09-19T02:50:24;5.10;;;3.20;;
76552;SDS011;65395;53.168;18.156;2023-09-19T02:52:51;5.80;;;3.20;;
76552;SDS011;65395;53.168;18.156;2023-09-19T02:55:18;6.00;;;2.90;;
76552;SDS011;65395;53.168;18.156;2023-09-19T02:57:49;7.90;;;2.90;;
76552;SDS011;65395;53.168;18.156;2023-09-19T03:00:18;4.40;;;3.20;;
76552;SDS011;65395;53.168;18.156;2023-09-19T03:02:48;5.80;;;2.80;;
76552;SDS011;65395;53.168;18.156;2023-09-19T03:05:21;6.90;;;3.70;;
76552;SDS011;65395;53.168;18.156;2023-09-19T03:07:50;6.10;;;3.60;;
76552;SDS011;65395;53.168;18.156;2023-09-19T03:10:17;9.80;;;4.30;;
76552;SDS011;65395;53.168;18.156;2023-09-19T03:12:46;12.40;;;4.20;;
76552;SDS011;65395;53.168;18.156;2023-09-19T03:15:14;8.10;;;4.30;;
76552;SDS011;65395;53.168;18.156;2023-09-19T03:17:43;7.90;;;4.30;;
76552;SDS011;65395;53.168;18.156;2023-09-19T03:20:12;11.00;;;4.30;;
76552;SDS011;65395;53.168;18.156;2023-09-19T03:22:40;8.80;;;4.80;;
76552;SDS011;65395;53.168;18.156;2023-09-19T03:25:07;9.30;;;5.00;;
76552;SDS011;65395;53.168;18.156;2023-09-19T03:27:35;9.10;;;5.40;;
76552;SDS011;65395;53.168;18.156;2023-09-19T03:30:03;7.70;;;5.30;;
76552;SDS011;65395;53.168;18.156;2023-09-19T03:32:35;12.50;;;5.20;;
76552;SDS011;65395;53.168;18.156;2023-09-19T03:35:03;9.50;;;5.20;;
76552;SDS011;65395;53.168;18.156;2023-09-19T03:37:31;7.90;;;4.80;;
76552;SDS011;65395;53.168;18.156;2023-09-19T03:40:00;10.30;;;5.80;;
76552;SDS011;65395;53.168;18.156;2023-09-19T03:42:31;8.60;;;5.70;;
76552;SDS011;65395;53.168;18.156;2023-09-19T03:44:58;7.70;;;5.60;;
76552;SDS011;65395;53.168;18.156;2023-09-19T03:47:27;8.50;;;5.50;;
76552;SDS011;65395;53.168;18.156;2023-09-19T03:49:54;11.20;;;5.10;;
76552;SDS011;65395;53.168;18.156;2023-09-19T03:52:21;7.60;;;5.00;;
76552;SDS011;65395;53.168;18.156;2023-09-19T03:54:48;13.50;;;4.60;;
76552;SDS011;65395;53.168;18.156;2023-09-19T03:57:15;10.10;;;4.60;;
76552;SDS011;65395;53.168;18.156;2023-09-19T03:59:46;7.90;;;4.40;;
76552;SDS011;65395;53.168;18.156;2023-09-19T04:02:13;8.90;;;4.50;;
76552;SDS011;65395;53.168;18.156;2023-09-19T04:04:49;8.00;;;4.60;;
76552;SDS011;65395;53.168;18.156;2023-09-19T04:07:17;6.40;;;4.90;;
76552;SDS011;65395;53.168;18.156;2023-09-19T04:09:46;8.70;;;4.60;;
76552;SDS011;65395;53.168;18.156;2023-09-19T04:12:15;8.20;;;4.20;;
76552;SDS011;65395;53.168;18.156;2023-09-19T04:14:43;6.30;;;4.30;;
76552;SDS011;65395;53.168;18.156;2023-09-19T04:17:10;8.90;;;4.40;;
76552;SDS011;65395;53.168;18.156;2023-09-19T04:19:37;8.20;;;4.50;;
76552;SDS011;65395;53.168;18.156;2023-09-19T04:22:05;6.30;;;4.30;;
76552;SDS011;65395;53.168;18.156;2023-09-19T04:24:32;7.50;;;4.20;;
76552;SDS011;65395;53.168;18.156;2023-09-19T04:27:00;8.70;;;4.10;;
76552;SDS011;65395;53.168;18.156;2023-09-19T04:29:27;6.60;;;4.30;;
76552;SDS011;65395;53.168;18.156;2023-09-19T04:31:55;7.20;;;4.10;;
76552;SDS011;65395;53.168;18.156;2023-09-19T04:34:24;7.40;;;4.30;;
76552;SDS011;65395;53.168;18.156;2023-09-19T04:36:51;6.60;;;3.90;;
76552;SDS011;65395;53.168;18.156;2023-09-19T04:39:19;6.10;;;4.00;;
76552;SDS011;65395;53.168;18.156;2023-09-19T04:41:47;8.00;;;4.10;;
76552;SDS011;65395;53.168;18.156;2023-09-19T04:44:14;8.50;;;4.40;;
76552;SDS011;65395;53.168;18.156;2023-09-19T04:46:42;9.60;;;4.50;;
76552;SDS011;65395;53.168;18.156;2023-09-19T04:49:08;8.80;;;5.00;;
76552;SDS011;65395;53.168;18.156;2023-09-19T04:51:35;10.10;;;4.60;;
76552;SDS011;65395;53.168;18.156;2023-09-19T04:54:02;8.60;;;4.40;;
76552;SDS011;65395;53.168;18.156;2023-09-19T04:56:30;9.20;;;4.80;;
76552;SDS011;65395;53.168;18.156;2023-09-19T04:58:58;9.40;;;4.30;;
76552;SDS011;65395;53.168;18.156;2023-09-19T05:01:26;7.20;;;4.10;;
76552;SDS011;65395;53.168;18.156;2023-09-19T05:03:53;8.00;;;4.40;;
76552;SDS011;65395;53.168;18.156;2023-09-19T05:06:20;11.50;;;4.30;;
76552;SDS011;65395;53.168;18.156;2023-09-19T05:08:47;7.20;;;4.50;;
76552;SDS011;65395;53.168;18.156;2023-09-19T05:11:19;8.70;;;4.30;;
76552;SDS011;65395;53.168;18.156;2023-09-19T05:13:49;7.30;;;4.30;;
76552;SDS011;65395;53.168;18.156;2023-09-19T05:16:16;5.00;;;4.00;;
76552;SDS011;65395;53.168;18.156;2023-09-19T05:18:44;8.60;;;4.40;;
76552;SDS011;65395;53.168;18.156;2023-09-19T05:21:11;8.70;;;4.40;;
76552;SDS011;65395;53.168;18.156;2023-09-19T05:23:38;7.70;;;4.70;;
76552;SDS011;65395;53.168;18.156;2023-09-19T05:26:05;8.70;;;4.50;;
76552;SDS011;65395;53.168;18.156;2023-09-19T05:28:32;11.90;;;4.80;;
76552;SDS011;65395;53.168;18.156;2023-09-19T05:31:01;8.40;;;4.50;;
76552;SDS011;65395;53.168;18.156;2023-09-19T05:33:29;10.50;;;4.70;;
76552;SDS011;65395;53.168;18.156;2023-09-19T05:35:58;8.60;;;4.50;;
76552;SDS011;65395;53.168;18.156;2023-09-19T05:38:24;9.90;;;4.40;;
76552;SDS011;65395;53.168;18.156;2023-09-19T05:40:53;7.30;;;4.30;;
76552;SDS011;65395;53.168;18.156;2023-09-19T05:43:20;4.80;;;3.60;;
76552;SDS011;65395;53.168;18.156;2023-09-19T05:45:48;8.40;;;4.20;;
76552;SDS011;65395;53.168;18.156;2023-09-19T05:48:15;7.40;;;4.20;;
76552;SDS011;65395;53.168;18.156;2023-09-19T05:50:42;6.80;;;3.70;;
76552;SDS011;65395;53.168;18.156;2023-09-19T05:53:09;7.20;;;4.40;;
76552;SDS011;65395;53.168;18.156;2023-09-19T05:55:39;6.60;;;3.30;;
76552;SDS011;65395;53.168;18.156;2023-09-19T05:58:06;7.10;;;3.70;;
76552;SDS011;65395;53.168;18.156;2023-09-19T06:00:34;7.70;;;3.70;;
76552;SDS011;65395;53.168;18.156;2023-09-19T06:03:01;6.10;;;3.50;;
76552;SDS011;65395;53.168;18.156;2023-09-19T06:05:27;6.20;;;3.40;;
76552;SDS011;65395;53.168;18.156;2023-09-19T06:07:56;6.30;;;3.90;;
76552;SDS011;65395;53.168;18.156;2023-09-19T06:10:26;7.80;;;3.70;;
76552;SDS011;65395;53.168;18.156;2023-09-19T06:12:55;7.90;;;3.80;;
76552;SDS011;65395;53.168;18.156;2023-09-19T06:15:24;5.80;;;3.10;;
76552;SDS011;65395;53.168;18.156;2023-09-19T06:17:52;6.20;;;3.20;;
76552;SDS011;65395;53.168;18.156;2023-09-19T06:23:20;5.80;;;3.10;;
76552;SDS011;65395;53.168;18.156;2023-09-19T06:26:06;5.00;;;3.10;;
76552;SDS011;65395;53.168;18.156;2023-09-19T06:28:34;5.30;;;3.40;;
76552;SDS011;65395;53.168;18.156;2023-09-19T06:31:02;5.30;;;3.50;;
76552;SDS011;65395;53.168;18.156;2023-09-19T06:33:29;7.90;;;3.50;;
76552;SDS011;65395;53.168;18.156;2023-09-19T06:35:57;5.30;;;3.30;;
76552;SDS011;65395;53.168;18.156;2023-09-19T06:38:26;6.80;;;4.20;;
76552;SDS011;65395;53.168;18.156;2023-09-19T06:40:53;4.20;;;3.20;;
76552;SDS011;65395;53.168;18.156;2023-09-19T06:43:20;8.40;;;4.20;;
76552;SDS011;65395;53.168;18.156;2023-09-19T06:45:47;6.30;;;3.60;;
76552;SDS011;65395;53.168;18.156;2023-09-19T06:48:14;5.50;;;3.60;;
76552;SDS011;65395;53.168;18.156;2023-09-19T06:50:42;4.00;;;3.20;;
76552;SDS011;65395;53.168;18.156;2023-09-19T06:53:10;6.20;;;3.30;;
76552;SDS011;65395;53.168;18.156;2023-09-19T06:55:37;7.70;;;3.60;;
76552;SDS011;65395;53.168;18.156;2023-09-19T06:58:04;5.60;;;3.60;;
76552;SDS011;65395;53.168;18.156;2023-09-19T07:00:32;5.60;;;3.60;;
76552;SDS011;65395;53.168;18.156;2023-09-19T07:03:03;6.40;;;3.70;;
76552;SDS011;65395;53.168;18.156;2023-09-19T07:05:38;5.00;;;3.90;;
76552;SDS011;65395;53.168;18.156;2023-09-19T07:08:06;9.20;;;4.10;;
76552;SDS011;65395;53.168;18.156;2023-09-19T07:10:34;6.80;;;4.20;;
76552;SDS011;65395;53.168;18.156;2023-09-19T07:13:01;7.20;;;3.80;;
76552;SDS011;65395;53.168;18.156;2023-09-19T07:15:31;6.30;;;4.00;;
76552;SDS011;65395;53.168;18.156;2023-09-19T07:18:03;6.00;;;3.90;;
76552;SDS011;65395;53.168;18.156;2023-09-19T07:20:30;8.10;;;3.80;;
76552;SDS011;65395;53.168;18.156;2023-09-19T07:22:58;5.30;;;3.20;;
76552;SDS011;65395;53.168;18.156;2023-09-19T07:25:26;7.00;;;4.50;;
76552;SDS011;65395;53.168;18.156;2023-09-19T07:27:55;8.70;;;5.00;;
76552;SDS011;65395;53.168;18.156;2023-09-19T07:30:22;8.00;;;4.90;;
76552;SDS011;65395;53.168;18.156;2023-09-19T07:32:49;6.80;;;5.00;;
76552;SDS011;65395;53.168;18.156;2023-09-19T07:35:16;5.60;;;4.80;;
76552;SDS011;65395;53.168;18.156;2023-09-19T07:37:45;6.30;;;4.30;;
76552;SDS011;65395;53.168;18.156;2023-09-19T07:40:18;5.40;;;4.30;;
76552;SDS011;65395;53.168;18.156;2023-09-19T07:42:46;5.70;;;3.90;;
76552;SDS011;65395;53.168;18.156;2023-09-19T07:45:13;6.50;;;4.50;;
76552;SDS011;65395;53.168;18.156;2023-09-19T07:47:44;8.20;;;4.70;;
76552;SDS011;65395;53.168;18.156;2023-09-19T07:50:12;7.10;;;4.60;;
76552;SDS011;65395;53.168;18.156;2023-09-19T07:52:39;6.60;;;5.20;;
76552;SDS011;65395;53.168;18.156;2023-09-19T07:55:06;9.40;;;4.50;;
76552;SDS011;65395;53.168;18.156;2023-09-19T07:57:37;6.90;;;3.90;;
76552;SDS011;65395;53.168;18.156;2023-09-19T08:00:04;5.60;;;3.80;;
76552;SDS011;65395;53.168;18.156;2023-09-19T08:02:38;6.80;;;3.90;;
76552;SDS011;65395;53.168;18.156;2023-09-19T08:05:06;10.80;;;5.00;;
76552;SDS011;65395;53.168;18.156;2023-09-19T08:07:38;6.60;;;4.50;;
76552;SDS011;65395;53.168;18.156;2023-09-19T08:10:07;6.70;;;4.30;;
76552;SDS011;65395;53.168;18.156;2023-09-19T08:12:34;5.80;;;4.30;;
76552;SDS011;65395;53.168;18.156;2023-09-19T08:15:02;6.60;;;4.30;;
76552;SDS011;65395;53.168;18.156;2023-09-19T08:17:33;5.60;;;4.00;;
76552;SDS011;65395;53.168;18.156;2023-09-19T08:20:01;8.60;;;4.10;;
76552;SDS011;65395;53.168;18.156;2023-09-19T08:22:31;7.00;;;4.30;;
76552;SDS011;65395;53.168;18.156;2023-09-19T08:24:58;6.30;;;4.20;;
76552;SDS011;65395;53.168;18.156;2023-09-19T08:27:25;6.70;;;4.60;;
76552;SDS011;65395;53.168;18.156;2023-09-19T08:29:54;6.60;;;4.60;;
76552;SDS011;65395;53.168;18.156;2023-09-19T08:32:20;5.30;;;4.30;;
76552;SDS011;65395;53.168;18.156;2023-09-19T08:34:50;9.20;;;4.00;;
76552;SDS011;65395;53.168;18.156;2023-09-19T08:37:17;7.80;;;4.00;;
76552;SDS011;65395;53.168;18.156;2023-09-19T08:39:45;5.90;;;4.30;;
76552;SDS011;65395;53.168;18.156;2023-09-19T08:42:12;6.00;;;4.60;;
76552;SDS011;65395;53.168;18.156;2023-09-19T08:44:39;6.90;;;4.20;;
76552;SDS011;65395;53.168;18.156;2023-09-19T08:47:11;6.40;;;4.50;;
76552;SDS011;65395;53.168;18.156;2023-09-19T08:49:44;5.10;;;3.50;;
76552;SDS011;65395;53.168;18.156;2023-09-19T08:52:28;4.00;;;3.30;;
76552;SDS011;65395;53.168;18.156;2023-09-19T08:55:01;7.40;;;4.00;;
76552;SDS011;65395;53.168;18.156;2023-09-19T08:57:33;5.60;;;4.00;;
76552;SDS011;65395;53.168;18.156;2023-09-19T09:00:04;5.10;;;3.70;;
76552;SDS011;65395;53.168;18.156;2023-09-19T09:02:37;6.90;;;4.10;;
76552;SDS011;65395;53.168;18.156;2023-09-19T09:05:08;4.60;;;3.90;;
76552;SDS011;65395;53.168;18.156;2023-09-19T09:07:37;5.40;;;3.50;;
76552;SDS011;65395;53.168;18.156;2023-09-19T09:10:05;7.90;;;3.40;;
76552;SDS011;65395;53.168;18.156;2023-09-19T09:12:34;6.30;;;3.40;;
76552;SDS011;65395;53.168;18.156;2023-09-19T09:15:03;6.90;;;3.80;;
76552;SDS011;65395;53.168;18.156;2023-09-19T09:17:30;7.00;;;3.60;;
76552;SDS011;65395;53.168;18.156;2023-09-19T09:19:58;4.40;;;3.40;;
76552;SDS011;65395;53.168;18.156;2023-09-19T09:22:25;8.10;;;4.40;;
76552;SDS011;65395;53.168;18.156;2023-09-19T09:24:53;6.30;;;3.50;;
76552;SDS011;65395;53.168;18.156;2023-09-19T09:27:24;4.90;;;3.10;;
76552;SDS011;65395;53.168;18.156;2023-09-19T09:29:52;6.00;;;3.40;;
76552;SDS011;65395;53.168;18.156;2023-09-19T09:32:24;5.30;;;2.80;;
76552;SDS011;65395;53.168;18.156;2023-09-19T09:34:55;4.30;;;2.30;;
76552;SDS011;65395;53.168;18.156;2023-09-19T09:37:24;7.60;;;2.60;;
76552;SDS011;65395;53.168;18.156;2023-09-19T09:39:55;5.40;;;2.80;;
76552;SDS011;65395;53.168;18.156;2023-09-19T09:42:45;4.60;;;2.60;;
76552;SDS011;65395;53.168;18.156;2023-09-19T09:45:13;5.20;;;2.60;;
76552;SDS011;65395;53.168;18.156;2023-09-19T09:47:44;4.50;;;2.30;;
76552;SDS011;65395;53.168;18.156;2023-09-19T09:58:33;6.20;;;2.60;;
76552;SDS011;65395;53.168;18.156;2023-09-19T10:01:02;4.00;;;2.20;;
76552;SDS011;65395;53.168;18.156;2023-09-19T10:03:42;3.20;;;2.10;;
76552;SDS011;65395;53.168;18.156;2023-09-19T10:06:14;5.10;;;2.10;;
76552;SDS011;65395;53.168;18.156;2023-09-19T10:11:38;4.30;;;2.40;;
76552;SDS011;65395;53.168;18.156;2023-09-19T10:14:09;4.10;;;2.40;;
76552;SDS011;65395;53.168;18.156;2023-09-19T10:16:40;4.00;;;2.30;;
76552;SDS011;65395;53.168;18.156;2023-09-19T10:19:15;4.90;;;2.40;;
76552;SDS011;65395;53.168;18.156;2023-09-19T10:21:49;5.80;;;2.50;;
76552;SDS011;65395;53.168;18.156;2023-09-19T10:24:19;4.20;;;2.30;;
76552;SDS011;65395;53.168;18.156;2023-09-19T10:26:49;3.90;;;2.20;;
76552;SDS011;65395;53.168;18.156;2023-09-19T10:29:17;3.30;;;2.10;;
76552;SDS011;65395;53.168;18.156;2023-09-19T10:31:46;3.00;;;2.00;;
76552;SDS011;65395;53.168;18.156;2023-09-19T10:34:14;3.20;;;2.00;;
76552;SDS011;65395;53.168;18.156;2023-09-19T10:36:44;3.20;;;2.10;;
76552;SDS011;65395;53.168;18.156;2023-09-19T10:39:14;3.70;;;1.90;;
76552;SDS011;65395;53.168;18.156;2023-09-19T10:41:47;4.40;;;2.10;;
76552;SDS011;65395;53.168;18.156;2023-09-19T10:44:23;5.10;;;2.00;;
76552;SDS011;65395;53.168;18.156;2023-09-19T10:46:52;3.20;;;2.10;;
76552;SDS011;65395;53.168;18.156;2023-09-19T10:49:20;4.30;;;1.90;;
76552;SDS011;65395;53.168;18.156;2023-09-19T10:51:49;6.10;;;1.80;;
76552;SDS011;65395;53.168;18.156;2023-09-19T10:54:21;4.00;;;2.10;;
76552;SDS011;65395;53.168;18.156;2023-09-19T10:56:53;4.10;;;1.90;;
76552;SDS011;65395;53.168;18.156;2023-09-19T10:59:24;4.30;;;2.20;;
76552;SDS011;65395;53.168;18.156;2023-09-19T11:01:52;3.50;;;2.00;;
76552;SDS011;65395;53.168;18.156;2023-09-19T11:04:27;2.70;;;1.90;;
76552;SDS011;65395;53.168;18.156;2023-09-19T11:07:00;3.60;;;1.90;;
76552;SDS011;65395;53.168;18.156;2023-09-19T11:09:43;4.70;;;1.80;;
76552;SDS011;65395;53.168;18.156;2023-09-19T11:16:02;3.70;;;1.80;;
76552;SDS011;65395;53.168;18.156;2023-09-19T11:26:51;4.00;;;1.80;;
76552;SDS011;65395;53.168;18.156;2023-09-19T11:29:27;3.00;;;1.60;;
76552;SDS011;65395;53.168;18.156;2023-09-19T11:31:55;3.70;;;1.80;;
76552;SDS011;65395;53.168;18.156;2023-09-19T11:40:05;2.60;;;1.80;;
76552;SDS011;65395;53.168;18.156;2023-09-19T11:42:41;5.40;;;1.90;;
76552;SDS011;65395;53.168;18.156;2023-09-19T11:47:58;2.70;;;1.70;;
76552;SDS011;65395;53.168;18.156;2023-09-19T11:50:26;4.00;;;1.80;;
76552;SDS011;65395;53.168;18.156;2023-09-19T11:52:54;3.60;;;1.80;;
76552;SDS011;65395;53.168;18.156;2023-09-19T11:55:21;4.80;;;2.20;;
76552;SDS011;65395;53.168;18.156;2023-09-19T11:57:52;4.10;;;1.80;;
76552;SDS011;65395;53.168;18.156;2023-09-19T12:00:21;2.60;;;1.80;;
76552;SDS011;65395;53.168;18.156;2023-09-19T12:02:50;5.00;;;1.80;;
76552;SDS011;65395;53.168;18.156;2023-09-19T12:05:29;3.20;;;1.60;;
76552;SDS011;65395;53.168;18.156;2023-09-19T12:07:59;2.30;;;1.70;;
76552;SDS011;65395;53.168;18.156;2023-09-19T12:10:27;2.10;;;1.40;;
76552;SDS011;65395;53.168;18.156;2023-09-19T12:12:54;3.90;;;2.00;;
76552;SDS011;65395;53.168;18.156;2023-09-19T12:15:23;2.40;;;1.50;;
76552;SDS011;65395;53.168;18.156;2023-09-19T12:17:57;3.40;;;1.70;;
76552;SDS011;65395;53.168;18.156;2023-09-19T12:20:24;2.40;;;1.70;;
76552;SDS011;65395;53.168;18.156;2023-09-19T12:22:51;2.80;;;1.70;;
76552;SDS011;65395;53.168;18.156;2023-09-19T12:25:17;3.60;;;1.60;;
76552;SDS011;65395;53.168;18.156;2023-09-19T12:27:48;2.90;;;1.60;;
76552;SDS011;65395;53.168;18.156;2023-09-19T12:30:19;3.00;;;1.50;;
76552;SDS011;65395;53.168;18.156;2023-09-19T12:32:53;7.10;;;1.90;;
76552;SDS011;65395;53.168;18.156;2023-09-19T12:35:27;2.90;;;1.70;;
76552;SDS011;65395;53.168;18.156;2023-09-19T12:37:56;3.00;;;1.70;;
76552;SDS011;65395;53.168;18.156;2023-09-19T12:40:23;1.90;;;1.60;;
76552;SDS011;65395;53.168;18.156;2023-09-19T12:42:54;6.80;;;2.00;;
76552;SDS011;65395;53.168;18.156;2023-09-19T12:45:22;3.70;;;1.90;;
76552;SDS011;65395;53.168;18.156;2023-09-19T12:48:26;2.40;;;1.90;;
76552;SDS011;65395;53.168;18.156;2023-09-19T12:53:33;3.70;;;1.70;;
76552;SDS011;65395;53.168;18.156;2023-09-19T12:56:06;2.70;;;1.70;;
76552;SDS011;65395;53.168;18.156;2023-09-19T12:58:36;2.20;;;1.80;;
76552;SDS011;65395;53.168;18.156;2023-09-19T13:01:15;3.70;;;1.70;;
76552;SDS011;65395;53.168;18.156;2023-09-19T13:03:43;3.10;;;1.80;;
76552;SDS011;65395;53.168;18.156;2023-09-19T13:06:10;3.60;;;2.00;;
76552;SDS011;65395;53.168;18.156;2023-09-19T13:08:38;3.70;;;2.10;;
76552;SDS011;65395;53.168;18.156;2023-09-19T13:11:09;4.60;;;2.00;;
76552;SDS011;65395;53.168;18.156;2023-09-19T13:13:41;2.60;;;1.80;;
76552;SDS011;65395;53.168;18.156;2023-09-19T13:16:11;4.20;;;1.80;;
76552;SDS011;65395;53.168;18.156;2023-09-19T13:18:44;2.40;;;1.70;;
76552;SDS011;65395;53.168;18.156;2023-09-19T13:21:13;2.40;;;1.70;;
76552;SDS011;65395;53.168;18.156;2023-09-19T13:23:50;3.60;;;1.80;;
76552;SDS011;65395;53.168;18.156;2023-09-19T13:26:18;5.90;;;1.90;;
76552;SDS011;65395;53.168;18.156;2023-09-19T13:28:46;4.50;;;2.10;;
76552;SDS011;65395;53.168;18.156;2023-09-19T13:31:15;3.50;;;2.00;;
76552;SDS011;65395;53.168;18.156;2023-09-19T13:33:43;4.00;;;1.90;;
76552;SDS011;65395;53.168;18.156;2023-09-19T13:36:11;5.10;;;2.10;;
76552;SDS011;65395;53.168;18.156;2023-09-19T13:38:41;6.20;;;1.90;;
76552;SDS011;65395;53.168;18.156;2023-09-19T13:41:09;3.10;;;1.70;;
76552;SDS011;65395;53.168;18.156;2023-09-19T13:43:37;4.80;;;1.90;;
76552;SDS011;65395;53.168;18.156;2023-09-19T13:46:05;7.30;;;2.00;;
76552;SDS011;65395;53.168;18.156;2023-09-19T13:48:38;4.60;;;2.10;;
76552;SDS011;65395;53.168;18.156;2023-09-19T13:51:05;4.50;;;1.90;;
76552;SDS011;65395;53.168;18.156;2023-09-19T13:53:32;3.60;;;2.00;;
76552;SDS011;65395;53.168;18.156;2023-09-19T13:56:00;4.30;;;1.90;;
76552;SDS011;65395;53.168;18.156;2023-09-19T13:58:27;4.10;;;2.10;;
76552;SDS011;65395;53.168;18.156;2023-09-19T14:00:55;3.20;;;2.10;;
76552;SDS011;65395;53.168;18.156;2023-09-19T14:03:24;5.50;;;2.00;;
76552;SDS011;65395;53.168;18.156;2023-09-19T14:05:54;5.10;;;1.90;;
76552;SDS011;65395;53.168;18.156;2023-09-19T14:08:21;3.20;;;2.00;;
76552;SDS011;65395;53.168;18.156;2023-09-19T14:10:50;3.50;;;2.40;;
76552;SDS011;65395;53.168;18.156;2023-09-19T14:13:17;5.90;;;2.80;;
76552;SDS011;65395;53.168;18.156;2023-09-19T14:15:43;4.50;;;2.30;;
76552;SDS011;65395;53.168;18.156;2023-09-19T14:18:10;4.70;;;2.60;;
76552;SDS011;65395;53.168;18.156;2023-09-19T14:20:38;4.30;;;2.20;;
76552;SDS011;65395;53.168;18.156;2023-09-19T14:23:07;7.10;;;2.50;;
76552;SDS011;65395;53.168;18.156;2023-09-19T14:25:34;4.20;;;2.20;;
76552;SDS011;65395;53.168;18.156;2023-09-19T14:28:02;4.30;;;2.40;;
76552;SDS011;65395;53.168;18.156;2023-09-19T14:30:29;6.00;;;2.40;;
76552;SDS011;65395;53.168;18.156;2023-09-19T14:32:56;5.10;;;2.50;;
76552;SDS011;65395;53.168;18.156;2023-09-19T14:35:24;3.60;;;2.50;;
76552;SDS011;65395;53.168;18.156;2023-09-19T14:37:52;4.60;;;2.70;;
76552;SDS011;65395;53.168;18.156;2023-09-19T14:40:19;4.60;;;2.50;;
76552;SDS011;65395;53.168;18.156;2023-09-19T14:42:46;4.70;;;2.40;;
76552;SDS011;65395;53.168;18.156;2023-09-19T14:45:14;3.50;;;2.50;;
76552;SDS011;65395;53.168;18.156;2023-09-19T14:47:46;4.50;;;2.90;;
76552;SDS011;65395;53.168;18.156;2023-09-19T14:50:13;3.40;;;2.50;;
76552;SDS011;65395;53.168;18.156;2023-09-19T14:52:41;3.30;;;2.30;;
76552;SDS011;65395;53.168;18.156;2023-09-19T14:55:08;6.80;;;2.70;;
76552;SDS011;65395;53.168;18.156;2023-09-19T14:57:41;3.90;;;2.70;;
76552;SDS011;65395;53.168;18.156;2023-09-19T15:00:11;4.90;;;2.70;;
76552;SDS011;65395;53.168;18.156;2023-09-19T15:02:39;4.70;;;2.60;;
76552;SDS011;65395;53.168;18.156;2023-09-19T15:05:07;4.40;;;2.60;;
76552;SDS011;65395;53.168;18.156;2023-09-19T15:07:35;5.50;;;2.60;;
76552;SDS011;65395;53.168;18.156;2023-09-19T15:10:04;5.00;;;2.40;;
76552;SDS011;65395;53.168;18.156;2023-09-19T15:12:33;3.00;;;2.30;;
76552;SDS011;65395;53.168;18.156;2023-09-19T15:15:01;4.40;;;2.40;;
76552;SDS011;65395;53.168;18.156;2023-09-19T15:17:28;5.60;;;2.60;;
76552;SDS011;65395;53.168;18.156;2023-09-19T15:19:55;4.90;;;2.50;;
76552;SDS011;65395;53.168;18.156;2023-09-19T15:22:22;4.60;;;2.40;;
76552;SDS011;65395;53.168;18.156;2023-09-19T15:24:49;5.40;;;2.70;;
76552;SDS011;65395;53.168;18.156;2023-09-19T15:27:16;5.70;;;2.70;;
76552;SDS011;65395;53.168;18.156;2023-09-19T15:29:46;4.50;;;2.50;;
76552;SDS011;65395;53.168;18.156;2023-09-19T15:32:13;5.10;;;2.50;;
76552;SDS011;65395;53.168;18.156;2023-09-19T15:34:40;5.20;;;2.60;;
76552;SDS011;65395;53.168;18.156;2023-09-19T15:37:07;5.10;;;2.40;;